الصفحة الرئيسية
METAR-TAF:

METAR-TAF

مطار :

مطار تونس قرطاج الدولي

تونس, تونس

دائرة عرض: 36-50N, خط طول: 010-14E, ارتفاع: 3 متر

مراقبة الطقس الحالي

تاريخ ووقت الإصدار 13 دقيقة قبل الساعة 11:00UTC
ريح 15 عقدة من الغرب
درجة الحرارة
ضغط 1014 hPa
الرؤية 10 كم أو أكثر

METAR: DTTA 121100Z 28015KT 9999 SCT0?0R16/07 Q1014

زمن: 12:13 (11:13 UTC)

توقعات

تاريخ ووقت الإصدار 6ساعات و 13 دقيقة قبل الساعة 05:00UTC
التوقعات صالحة من12 الساعة 06 UTC إلى 13 الساعة 06 UTC
ريح 15 عقدة من الغرب/الشمال الغربي
الرؤية 10 كم أو أكثر
غيوم متفرقة على ارتفاع 2000 قدم
نظرية الاحتمالات 40% :
مؤقت
من 12 الساعة 06 UTC إلى 12 الساعة 12 UTC
ريح 22 عقدة من الشمال الغربي تتزايد حتى 34 عقدة
الرؤية: 4000 متر
غيوم متفرقة على ارتفاع 2300 قدم, مزن ركامية عمودية.
غيوم قليلة على ارتفاع 2600 قدم, مزنة ركامية.
أصبح
من 12 الساعة 14 UTC إلى 12 الساعة 16 UTC
ريح 10 عقدة من الغرب/الجنوب الغربي

TAF: DTTA 120500Z 1206/1306 30015KT 9999 SCT020 PROB40 TEMPO 1206/1212 31022G34KT 4000 -TSI SCT023TCU FEW026CB BECMG 1214/1216 25010KT

أرصاد الطقس والتوقعات من أكثر من 4000 مطار (تقارير الطقس للمطار METAR والتنبؤ بالطقس بالمطارTAF).

المحطات المتاحة هي النقط الصفراء والحمراء على الخريطة.

حرك المؤشر فوق النقطة لمعرفة اسم المحطة.

ثم انقر لمعرفة أرصاد وتوقعات الطقس.

لتغيير الخارطة: اضغط على الأزرار الخضراء مع رمز الصليب الأسود للتكبير. على الزر الأخضر مع شرطة للتصغير، أو على الأسهم الخضراء للخرائط المجاورة.


METAR-TAF: